createdAt,value
2023-03-23T16:03:09.889Z,13.50
2023-03-23T16:05:38.736Z,13.40
2023-03-23T16:08:10.102Z,13.40
2023-03-23T16:10:43.532Z,13.30
2023-03-23T16:13:13.319Z,13.30
2023-03-23T16:15:42.267Z,13.20
2023-03-23T16:18:20.774Z,13.20
2023-03-23T16:20:50.206Z,13.10
2023-03-23T16:23:19.224Z,13.10
2023-03-23T16:25:49.328Z,13.10
2023-03-23T16:28:18.788Z,13.10
2023-03-23T16:30:48.385Z,13.10
2023-03-23T16:33:17.154Z,13.00
2023-03-23T16:35:45.922Z,13.00
2023-03-23T16:38:17.025Z,13.00
2023-03-23T16:40:46.792Z,13.00
2023-03-23T16:43:16.908Z,13.00
2023-03-23T16:45:47.434Z,12.90
2023-03-23T16:48:17.613Z,12.90
2023-03-23T16:50:46.303Z,12.90
2023-03-23T16:53:14.890Z,12.90
2023-03-23T16:55:47.869Z,12.80
2023-03-23T16:58:18.521Z,12.90
2023-03-23T17:00:50.510Z,12.80
2023-03-23T17:03:19.947Z,12.80
2023-03-23T17:05:49.917Z,12.80
2023-03-23T17:08:18.539Z,12.80
2023-03-23T17:10:47.818Z,12.70
2023-03-23T17:13:18.585Z,12.70
2023-03-23T17:15:48.106Z,12.70
2023-03-23T17:18:17.163Z,12.70
2023-03-23T17:20:45.700Z,12.70
2023-03-23T17:23:14.527Z,12.70
2023-03-23T17:25:44.892Z,12.70
2023-03-23T17:28:13.653Z,12.70
2023-03-23T17:30:45.874Z,12.60
2023-03-23T17:33:15.532Z,12.70
2023-03-23T17:35:47.246Z,12.70
2023-03-23T17:38:17.863Z,12.70
2023-03-23T17:40:46.509Z,12.70
2023-03-23T17:43:15.108Z,12.70
2023-03-23T17:45:47.103Z,12.70
2023-03-23T17:48:16.091Z,12.70
2023-03-23T17:50:48.262Z,12.70
2023-03-23T17:53:18.579Z,12.70
2023-03-23T17:55:47.506Z,12.70
2023-03-23T17:58:16.806Z,12.70
2023-03-23T18:00:46.912Z,12.70
2023-03-23T18:03:15.704Z,12.70
2023-03-23T18:05:44.570Z,12.70
2023-03-23T18:08:13.238Z,12.70
2023-03-23T18:10:42.421Z,12.70
2023-03-23T18:13:11.177Z,12.70
2023-03-23T18:15:39.722Z,12.70
2023-03-23T18:18:10.366Z,12.70
2023-03-23T18:20:38.828Z,12.70
2023-03-23T18:23:07.820Z,12.70
2023-03-23T18:25:36.217Z,12.60
2023-03-23T18:28:07.060Z,12.60
2023-03-23T18:30:37.249Z,12.60
2023-03-23T18:33:06.315Z,12.60
2023-03-23T18:35:36.218Z,12.60
2023-03-23T18:38:08.314Z,12.60
2023-03-23T18:40:36.810Z,12.60
2023-03-23T18:43:05.259Z,12.60
2023-03-23T18:45:34.416Z,12.60
2023-03-23T18:48:03.851Z,12.60
2023-03-23T18:50:32.476Z,12.60
2023-03-23T18:53:02.497Z,12.60
2023-03-23T18:55:33.761Z,12.60
2023-03-23T18:58:02.907Z,12.50
2023-03-23T19:00:33.845Z,12.50
2023-03-23T19:03:15.685Z,12.60
2023-03-23T19:05:45.981Z,12.60
2023-03-23T19:08:17.321Z,12.50
2023-03-23T19:10:46.074Z,12.50
2023-03-23T19:13:17.648Z,12.50
2023-03-23T19:15:46.845Z,12.50
2023-03-23T19:18:16.002Z,12.50
2023-03-23T19:21:12.505Z,12.40
2023-03-23T19:23:36.712Z,12.40
2023-03-23T19:26:05.648Z,12.50
2023-03-23T19:29:18.838Z,12.40
2023-03-23T19:31:25.119Z,12.40
2023-03-23T19:33:54.760Z,12.40
2023-03-23T19:36:25.020Z,12.40
2023-03-23T19:38:57.788Z,12.40
2023-03-23T19:41:32.208Z,12.40
2023-03-23T19:44:02.193Z,12.40
2023-03-23T19:46:31.651Z,12.40
2023-03-23T19:49:00.940Z,12.40
2023-03-23T19:51:30.073Z,12.40
2023-03-23T19:54:01.047Z,12.50
2023-03-23T19:56:30.715Z,12.50
2023-03-23T19:59:00.245Z,12.50
2023-03-23T20:01:30.003Z,12.50
2023-03-23T20:04:00.235Z,12.50
2023-03-23T20:06:38.992Z,12.50
2023-03-23T20:09:21.738Z,12.50
2023-03-23T20:11:50.558Z,12.50
2023-03-23T20:14:19.297Z,12.40
2023-03-23T20:16:50.433Z,12.50
2023-03-23T20:19:19.701Z,12.50
2023-03-23T20:21:57.437Z,12.40
2023-03-23T20:24:27.737Z,12.40
2023-03-23T20:26:56.756Z,12.40
2023-03-23T20:29:31.621Z,12.40
2023-03-23T20:32:00.877Z,12.40
2023-03-23T20:34:42.588Z,12.40
2023-03-23T20:37:24.060Z,12.40
2023-03-23T20:39:57.840Z,12.40
2023-03-23T20:42:38.485Z,12.40
2023-03-23T20:45:08.866Z,12.30
2023-03-23T20:47:45.095Z,12.30
2023-03-23T20:50:33.951Z,12.20
2023-03-23T20:53:06.045Z,12.20
2023-03-23T20:55:38.740Z,12.20
2023-03-23T20:59:24.173Z,12.10
2023-03-23T22:12:27.341Z,10.80
2023-03-23T22:23:06.512Z,10.80
2023-03-23T22:25:54.697Z,10.80
2023-03-23T22:32:45.815Z,10.70
2023-03-23T22:35:14.413Z,10.70
2023-03-23T22:37:42.985Z,10.70
2023-03-23T22:40:11.702Z,10.70
2023-03-23T22:42:40.713Z,10.70
2023-03-23T22:45:10.200Z,10.70
2023-03-23T22:47:39.317Z,10.70
2023-03-23T22:50:10.814Z,10.70
2023-03-23T22:52:39.585Z,10.70
2023-03-23T22:55:09.734Z,10.60
2023-03-23T22:57:38.244Z,10.60
2023-03-23T23:00:14.125Z,10.60
2023-03-23T23:02:42.936Z,10.50
2023-03-23T23:05:13.398Z,10.50
2023-03-23T23:07:41.909Z,10.50
2023-03-23T23:10:10.825Z,10.40
2023-03-23T23:12:39.369Z,10.50
2023-03-23T23:15:09.113Z,10.50
2023-03-23T23:17:38.494Z,10.50
2023-03-23T23:20:12.863Z,10.40
2023-03-23T23:22:44.494Z,10.40
2023-03-23T23:25:13.688Z,10.40
2023-03-23T23:27:42.401Z,10.40
2023-03-23T23:30:11.876Z,10.40
2023-03-23T23:32:42.850Z,10.30
2023-03-23T23:35:12.244Z,10.30
2023-03-23T23:37:42.107Z,10.30
2023-03-23T23:40:14.984Z,10.30
2023-03-23T23:42:43.866Z,10.30
2023-03-23T23:45:12.568Z,10.20
2023-03-23T23:47:41.834Z,10.20
2023-03-23T23:50:12.950Z,10.20
2023-03-23T23:52:46.606Z,10.20
2023-03-23T23:55:18.978Z,10.20
2023-03-23T23:57:48.779Z,10.10
